createdAt,value
2023-03-22T00:01:42.353Z,100711.16
2023-03-22T00:04:08.046Z,100717.75
2023-03-22T00:06:33.755Z,100714.16
2023-03-22T00:08:59.432Z,100707.81
2023-03-22T00:11:25.674Z,100720.50
2023-03-22T00:13:51.735Z,100717.75
2023-03-22T00:16:17.664Z,100710.59
2023-03-22T00:18:43.579Z,100715.84
2023-03-22T00:21:12.578Z,100710.31
2023-03-22T00:23:38.266Z,100705.88
2023-03-22T00:26:04.017Z,100709.47
2023-03-22T00:28:29.845Z,100699.53
2023-03-22T00:30:57.992Z,100690.44
2023-03-22T00:33:23.977Z,100688.50
2023-03-22T00:35:51.220Z,100687.38
2023-03-22T00:38:17.108Z,100690.16
2023-03-22T00:40:42.904Z,100692.91
2023-03-22T00:43:08.639Z,100678.56
2023-03-22T00:45:39.983Z,100677.47
2023-03-22T00:48:08.088Z,100666.41
2023-03-22T00:50:33.755Z,100667.53
2023-03-22T00:52:59.640Z,100660.06
2023-03-22T00:55:25.274Z,100662.81
2023-03-22T00:57:50.913Z,100654.84
2023-03-22T01:00:16.929Z,100664.78
2023-03-22T01:02:42.682Z,100659.25
2023-03-22T01:05:15.073Z,100659.25
2023-03-22T01:07:42.217Z,100659.25
2023-03-22T01:10:09.244Z,100652.09
2023-03-22T01:12:35.171Z,100646.56
2023-03-22T01:15:01.114Z,100646.56
2023-03-22T01:17:26.762Z,100644.63
2023-03-22T01:19:52.457Z,100641.03
2023-03-22T01:22:18.227Z,100641.03
2023-03-22T01:24:43.875Z,100639.09
2023-03-22T01:27:09.572Z,100631.94
2023-03-22T01:29:35.229Z,100628.31
2023-03-22T01:32:00.870Z,100629.19
2023-03-22T01:34:26.700Z,100629.19
2023-03-22T01:36:53.255Z,100628.31
2023-03-22T01:39:18.924Z,100627.50
2023-03-22T01:41:44.591Z,100615.38
2023-03-22T01:44:17.009Z,100606.25
2023-03-22T01:46:43.957Z,100607.09
2023-03-22T01:49:14.432Z,100604.34
2023-03-22T01:51:42.731Z,100601.56
2023-03-22T01:54:12.964Z,100603.47
2023-03-22T01:56:40.466Z,100593.56
2023-03-22T01:59:07.334Z,100590.78
2023-03-22T02:01:34.175Z,100585.28
2023-03-22T02:04:06.310Z,100582.50
2023-03-22T02:06:37.219Z,100585.28
2023-03-22T02:09:05.688Z,100579.22
2023-03-22T02:11:32.249Z,100588.03
2023-03-22T02:14:23.384Z,100577.00
2023-03-22T02:17:29.000Z,100575.34
2023-03-22T02:20:28.479Z,100574.53
2023-03-22T02:23:21.743Z,100569.00
2023-03-22T02:26:27.196Z,100558.78
2023-03-22T02:29:07.292Z,100557.97
2023-03-22T02:32:12.204Z,100541.72
2023-03-22T02:35:17.718Z,100542.53
2023-03-22T02:37:57.824Z,100542.53
2023-03-22T02:40:49.392Z,100537.00
2023-03-22T02:43:30.116Z,100534.25
2023-03-22T02:46:18.131Z,100529.00
2023-03-22T02:49:07.281Z,100529.81
2023-03-22T02:51:43.815Z,100534.25
2023-03-22T02:54:14.458Z,100529.81
2023-03-22T02:56:44.025Z,100528.72
2023-03-22T02:59:11.178Z,100523.19
2023-03-22T03:01:41.444Z,100527.06
2023-03-22T03:04:12.197Z,100525.97
2023-03-22T03:06:40.478Z,100527.06
2023-03-22T03:09:07.111Z,100531.47
2023-03-22T03:11:32.782Z,100531.75
2023-03-22T03:13:58.865Z,100521.53
2023-03-22T03:16:27.499Z,100529.81
2023-03-22T03:19:00.461Z,100527.91
2023-03-22T03:24:18.400Z,100526.22
2023-03-22T03:27:05.999Z,100514.38
2023-03-22T03:29:39.930Z,100514.38
2023-03-22T03:32:26.470Z,100513.56
2023-03-22T03:34:58.677Z,100513.56
2023-03-22T03:37:28.704Z,100514.38
2023-03-22T03:40:00.892Z,100505.28
2023-03-22T03:42:27.762Z,100504.44
2023-03-22T03:44:54.584Z,100506.09
2023-03-22T03:47:20.966Z,100512.72
2023-03-22T03:49:46.596Z,100503.63
2023-03-22T03:52:12.609Z,100511.59
2023-03-22T03:54:38.298Z,100508.03
2023-03-22T03:57:04.550Z,100508.03
2023-03-22T03:59:30.227Z,100508.84
2023-03-22T04:01:56.058Z,100510.78
2023-03-22T04:04:25.667Z,100508.03
2023-03-22T04:06:53.464Z,100517.13
2023-03-22T04:09:19.827Z,100520.72
2023-03-22T04:11:45.470Z,100514.66
2023-03-22T04:14:11.170Z,100516.31
2023-03-22T04:16:36.917Z,100516.31
2023-03-22T04:19:02.567Z,100508.84
2023-03-22T04:21:28.214Z,100506.38
2023-03-22T04:23:54.806Z,100510.78
2023-03-22T04:26:20.949Z,100498.09
2023-03-22T04:28:46.583Z,100502.50
2023-03-22T04:31:12.266Z,100500.56
2023-03-22T04:33:38.667Z,100493.41
2023-03-22T04:36:09.441Z,100489.81
2023-03-22T04:38:38.664Z,100480.72
2023-03-22T04:41:05.144Z,100482.38
2023-03-22T04:43:33.984Z,100479.91
2023-03-22T04:46:01.035Z,100494.81
2023-03-22T04:48:28.735Z,100496.47
2023-03-22T04:50:54.971Z,100489.00
2023-03-22T04:53:26.332Z,100495.63
2023-03-22T04:55:56.246Z,100492.84
2023-03-22T04:58:24.114Z,100500.88
2023-03-22T05:00:51.989Z,100498.09
2023-03-22T05:03:19.924Z,100491.75
2023-03-22T05:05:50.155Z,100482.66
2023-03-22T05:08:15.814Z,100487.34
2023-03-22T05:10:42.001Z,100484.56
2023-03-22T05:13:07.865Z,100486.53
2023-03-22T05:15:33.771Z,100484.56
2023-03-22T05:17:59.506Z,100488.19
2023-03-22T05:20:25.153Z,100488.19
2023-03-22T05:22:55.972Z,100491.75
2023-03-22T05:25:21.967Z,100498.38
2023-03-22T05:27:49.415Z,100492.84
2023-03-22T05:30:15.331Z,100502.00
2023-03-22T05:32:43.145Z,100499.22
2023-03-22T05:35:09.485Z,100503.06
2023-03-22T05:37:35.490Z,100496.75
2023-03-22T05:40:01.626Z,100493.97
2023-03-22T05:42:27.330Z,100491.22
2023-03-22T05:44:52.989Z,100493.97
2023-03-22T05:47:18.654Z,100492.03
2023-03-22T05:49:44.772Z,100495.91
2023-03-22T05:52:10.708Z,100494.81
2023-03-22T05:54:36.340Z,100493.16
2023-03-22T05:57:02.019Z,100493.97
2023-03-22T05:59:27.668Z,100492.34
2023-03-22T06:01:53.396Z,100496.75
2023-03-22T06:04:20.172Z,100495.09
2023-03-22T06:06:46.099Z,100495.09
2023-03-22T06:09:17.395Z,100503.38
2023-03-22T06:11:43.603Z,100503.06
2023-03-22T06:14:09.287Z,100497.03
2023-03-22T06:16:35.065Z,100497.88
2023-03-22T06:19:00.740Z,100506.16
2023-03-22T06:21:26.368Z,100499.81
2023-03-22T06:23:52.017Z,100496.22
2023-03-22T06:26:17.654Z,100500.63
2023-03-22T06:28:43.307Z,100501.44
2023-03-22T06:31:09.591Z,100500.63
2023-03-22T06:33:35.637Z,100491.53
2023-03-22T06:36:02.306Z,100487.94
2023-03-22T06:38:28.897Z,100487.13
2023-03-22T06:40:54.544Z,100494.28
2023-03-22T06:43:20.216Z,100493.16
2023-03-22T06:45:46.635Z,100489.59
2023-03-22T06:48:12.559Z,100488.75
2023-03-22T06:50:38.728Z,100491.53
2023-03-22T06:53:05.142Z,100482.13
2023-03-22T06:55:33.646Z,100482.41
2023-03-22T06:58:00.714Z,100473.31
2023-03-22T07:00:27.129Z,100472.47
2023-03-22T07:02:52.995Z,100478.00
2023-03-22T07:05:19.479Z,100479.66
2023-03-22T07:07:45.552Z,100467.81
2023-03-22T07:10:11.336Z,100458.41
2023-03-22T07:12:37.004Z,100466.69
2023-03-22T07:15:03.342Z,100466.13
2023-03-22T07:17:29.146Z,100471.91
2023-03-22T07:19:54.909Z,100470.78
2023-03-22T07:22:21.678Z,100469.13
2023-03-22T07:24:57.042Z,100460.03
2023-03-22T07:27:23.429Z,100471.06
2023-03-22T07:29:49.096Z,100460.84
2023-03-22T07:32:15.483Z,100466.38
2023-03-22T07:34:41.141Z,100456.97
2023-03-22T07:37:07.622Z,100466.94
2023-03-22T07:39:33.719Z,100473.25
2023-03-22T07:41:59.691Z,100474.09
2023-03-22T07:44:25.843Z,100481.53
2023-03-22T07:46:51.658Z,100476.84
2023-03-22T07:53:51.863Z,100484.00
2023-03-22T07:56:17.531Z,100475.72
2023-03-22T07:58:43.220Z,100484.81
2023-03-22T08:01:08.886Z,100484.81
2023-03-22T08:03:35.693Z,100488.13
2023-03-22T08:06:06.768Z,100495.59
2023-03-22T08:08:33.522Z,100492.84
2023-03-22T08:10:59.202Z,100490.88
2023-03-22T08:13:25.154Z,100496.41
2023-03-22T08:15:50.788Z,100495.28
2023-03-22T08:18:16.445Z,100492.53
2023-03-22T08:20:44.547Z,100492.53
2023-03-22T08:23:15.079Z,100496.66
2023-03-22T08:25:42.296Z,100495.00
2023-03-22T08:28:08.962Z,100504.94
2023-03-22T08:30:34.630Z,100498.56
2023-03-22T08:33:00.284Z,100502.44
2023-03-22T08:35:25.959Z,100490.28
2023-03-22T08:37:54.696Z,100502.19
2023-03-22T08:40:22.033Z,100502.75
2023-03-22T08:42:48.769Z,100498.88
2023-03-22T08:45:15.065Z,100491.41
2023-03-22T08:47:40.898Z,100495.28
2023-03-22T08:50:07.724Z,100497.75
2023-03-22T08:52:33.377Z,100491.41
2023-03-22T08:54:59.033Z,100489.78
2023-03-22T08:57:26.837Z,100485.38
2023-03-22T08:59:53.395Z,100480.66
2023-03-22T09:02:19.175Z,100488.94
2023-03-22T09:04:44.870Z,100484.56
2023-03-22T09:07:10.729Z,100479.84
2023-03-22T09:09:36.554Z,100480.38
2023-03-22T09:12:02.254Z,100479.03
2023-03-22T09:14:27.920Z,100477.53
2023-03-22T09:16:53.676Z,100486.94
2023-03-22T09:19:19.414Z,100469.88
2023-03-22T09:21:45.092Z,100476.47
2023-03-22T09:24:10.759Z,100482.00
2023-03-22T09:26:36.581Z,100482.00
2023-03-22T09:29:02.367Z,100475.66
2023-03-22T09:31:28.048Z,100473.72
2023-03-22T09:33:53.746Z,100473.44
2023-03-22T09:36:19.843Z,100471.81
2023-03-22T09:38:45.855Z,100478.16
2023-03-22T09:41:38.308Z,100475.09
2023-03-22T09:44:06.612Z,100485.31
2023-03-22T09:46:35.969Z,100473.16
2023-03-22T09:49:05.277Z,100478.41
2023-03-22T09:51:40.732Z,100477.53
2023-03-22T09:54:13.067Z,100461.84
2023-03-22T09:56:39.447Z,100460.72
2023-03-22T09:59:14.465Z,100466.22
2023-03-22T10:02:01.848Z,100461.53
2023-03-22T10:04:35.499Z,100465.94
2023-03-22T10:07:08.882Z,100466.22
2023-03-22T10:09:48.458Z,100463.47
2023-03-22T10:12:23.283Z,100462.34
2023-03-22T10:14:58.551Z,100460.41
2023-03-22T10:17:25.741Z,100450.19
2023-03-22T10:19:55.956Z,100430.84
2023-03-22T10:22:25.911Z,100444.97
2023-03-22T10:24:53.073Z,100455.69
2023-03-22T10:27:20.649Z,100462.84
2023-03-22T10:29:50.991Z,100451.00
2023-03-22T10:32:19.506Z,100455.69
2023-03-22T10:34:45.712Z,100441.06
2023-03-22T10:37:15.132Z,100438.63
2023-03-22T10:39:45.629Z,100442.19
2023-03-22T10:42:15.147Z,100473.09
2023-03-22T10:44:47.283Z,100462.03
2023-03-22T10:47:17.273Z,100463.47
2023-03-22T10:49:48.931Z,100466.22
2023-03-22T10:55:08.097Z,100446.91
2023-03-22T10:57:34.362Z,100449.66
2023-03-22T11:00:00.248Z,100440.56
2023-03-22T11:02:28.999Z,100434.09
2023-03-22T11:04:57.809Z,100449.59
2023-03-22T11:07:42.908Z,100440.50
2023-03-22T11:12:48.302Z,100448.25
2023-03-22T11:15:21.996Z,100462.03
2023-03-22T11:17:47.788Z,100456.53
2023-03-22T11:20:16.136Z,100452.94
2023-03-22T11:22:42.122Z,100457.66
2023-03-22T11:25:15.844Z,100448.53
2023-03-22T11:27:52.626Z,100451.00
2023-03-22T11:30:28.427Z,100449.06
2023-03-22T11:33:17.805Z,100453.75
2023-03-22T11:35:45.996Z,100455.44
2023-03-22T11:38:39.722Z,100457.06
2023-03-22T11:41:11.200Z,100450.41
2023-03-22T11:43:41.187Z,100441.31
2023-03-22T11:46:07.795Z,100434.97
2023-03-22T11:48:34.544Z,100438.56
2023-03-22T11:51:12.612Z,100434.66
2023-03-22T11:53:40.350Z,100436.63
2023-03-22T11:56:08.892Z,100433.53
2023-03-22T11:58:52.547Z,100434.41
2023-03-22T12:01:26.933Z,100428.03
2023-03-22T12:03:57.081Z,100428.03
2023-03-22T12:06:27.146Z,100428.88
2023-03-22T12:08:58.482Z,100429.16
2023-03-22T12:11:31.210Z,100417.81
2023-03-22T12:14:13.367Z,100418.66
2023-03-22T12:16:48.909Z,100419.75
2023-03-22T12:19:52.454Z,100421.09
2023-03-22T12:22:27.457Z,100419.16
2023-03-22T12:24:53.169Z,100405.66
2023-03-22T12:27:26.834Z,100407.59
2023-03-22T12:29:58.057Z,100405.66
2023-03-22T12:32:26.582Z,100410.38
2023-03-22T12:34:57.947Z,100406.47
2023-03-22T12:37:36.427Z,100403.72
2023-03-22T12:40:14.236Z,100405.66
2023-03-22T12:43:00.085Z,100411.69
2023-03-22T12:45:28.226Z,100417.22
2023-03-22T12:48:01.797Z,100412.50
2023-03-22T12:50:34.087Z,100415.28
2023-03-22T12:53:01.551Z,100407.00
2023-03-22T12:55:30.809Z,100415.00
2023-03-22T12:57:56.928Z,100413.34
2023-03-22T13:00:28.320Z,100410.56
2023-03-22T13:02:59.333Z,100409.75
2023-03-22T13:05:28.210Z,100416.63
2023-03-22T13:07:54.811Z,100405.59
2023-03-22T13:16:13.887Z,100399.75
2023-03-22T13:21:20.525Z,100398.66
2023-03-22T13:26:46.378Z,100395.91
2023-03-22T13:29:24.700Z,100386.50
2023-03-22T13:34:45.651Z,100387.63
2023-03-22T13:37:34.207Z,100391.19
2023-03-22T13:40:01.710Z,100384.00
2023-03-22T13:42:37.236Z,100381.25
2023-03-22T13:45:07.779Z,100384.88
2023-03-22T13:47:43.055Z,100375.44
2023-03-22T13:50:28.832Z,100383.44
2023-03-22T13:53:05.032Z,100377.09
2023-03-22T14:01:28.167Z,100368.50
2023-03-22T14:03:57.208Z,100367.69
2023-03-22T14:06:26.151Z,100358.25
2023-03-22T14:08:58.276Z,100358.25
2023-03-22T14:11:45.892Z,100357.16
2023-03-22T14:14:18.370Z,100349.97
2023-03-22T14:16:48.677Z,100347.22
2023-03-22T14:19:18.829Z,100338.66
